This is the latest recevied weather packets stored in our database for station/object N4DLW-3. If no packets are shown the sender has not sent any weather packets the latest 1 day(s).
| Time | Temp. | Humidity | Pressure | Rain* | Wind** | Luminosity | Snow |
|---|---|---|---|---|---|---|---|
| 1778088880 | 33.89° C | 47% | 1016 hPa | 0 mm | - | - | - |
| 1778088283 | 33.89° C | 45% | 1016.1 hPa | 0 mm | - | - | - |
| 1778087995 | 33.33° C | 48% | 1016.2 hPa | 0 mm | - | - | - |
| 1778087374 | 32.22° C | 53% | 1016.2 hPa | 0 mm | - | - | - |
| 1778087088 | 32.22° C | 51% | 1016.3 hPa | 0 mm | - | - | - |
| 1778085579 | 32.78° C | 51% | 1016.4 hPa | 0 mm | - | - | - |
| 1778084693 | 31.11° C | 54% | 1016.5 hPa | 0 mm | - | - | - |
| 1778084381 | 31.11° C | 55% | 1016.5 hPa | 0 mm | - | - | - |
| 1778082873 | 31.67° C | 56% | 1016.5 hPa | 0 mm | - | - | - |
| 1778082585 | 31.67° C | 56% | 1016.5 hPa | 0 mm | - | - | - |
| 1778082277 | 31.67° C | 57% | 1016.5 hPa | 0 mm | - | - | - |
| 1778081675 | 31.11° C | 57% | 1016.5 hPa | 0 mm | - | - | - |
| 1778080481 | 31.11° C | 59% | 1016.5 hPa | 0 mm | - | - | - |
| 1778080176 | 31.11° C | 57% | 1016.6 hPa | 0 mm | - | - | - |
| 1778079575 | 30.56° C | 61% | 1016.5 hPa | 0 mm | - | - | - |
| 1778078397 | 30.56° C | 60% | 1016.5 hPa | 0 mm | - | - | - |
| 1778078083 | 30.56° C | 63% | 1016.6 hPa | 0 mm | - | - | - |
| 1778077797 | 30° C | 64% | 1016.6 hPa | 0 mm | - | - | - |
| 1778077171 | 29.44° C | 66% | 1016.6 hPa | 0 mm | - | - | - |
| 1778076289 | 28.89° C | 69% | 1016.6 hPa | 0 mm | - | - | - |
| 1778075975 | 28.33° C | 71% | 1016.7 hPa | 0 mm | - | - | - |
| 1778075085 | 27.22° C | 75% | 1016.7 hPa | 0 mm | - | - | - |
| 1778074774 | 26.67° C | 76% | 1016.7 hPa | 0 mm | - | - | - |
| 1778074488 | 26.67° C | 78% | 1016.7 hPa | 0 mm | - | - | - |
| 1778073886 | 25.56° C | 80% | 1016.6 hPa | 0 mm | - | - | - |
* Rain latest hour (hover to see other rain measurements)
** Current wind speed in m/s (hover to see current wind gust speed)